sensor_id;sensor_type;location;lat;lon;timestamp;temperature;humidity
18450;DHT22;9354;50.194;7.690;2023-09-07T00:00:15;18.40;99.90
18450;DHT22;9354;50.194;7.690;2023-09-07T00:02:43;18.40;99.90
18450;DHT22;9354;50.194;7.690;2023-09-07T00:05:10;18.30;99.90
18450;DHT22;9354;50.194;7.690;2023-09-07T00:07:39;18.30;99.90
18450;DHT22;9354;50.194;7.690;2023-09-07T00:10:07;18.20;99.90
18450;DHT22;9354;50.194;7.690;2023-09-07T00:12:36;18.20;99.90
18450;DHT22;9354;50.194;7.690;2023-09-07T00:15:06;18.10;99.90
18450;DHT22;9354;50.194;7.690;2023-09-07T00:17:33;18.10;99.90
18450;DHT22;9354;50.194;7.690;2023-09-07T00:20:01;18.10;99.90
18450;DHT22;9354;50.194;7.690;2023-09-07T00:22:31;18.10;99.90
18450;DHT22;9354;50.194;7.690;2023-09-07T00:24:59;18.10;99.90
18450;DHT22;9354;50.194;7.690;2023-09-07T00:27:26;18.10;99.90
18450;DHT22;9354;50.194;7.690;2023-09-07T00:29:55;18.10;99.90
18450;DHT22;9354;50.194;7.690;2023-09-07T00:32:22;18.10;99.90
18450;DHT22;9354;50.194;7.690;2023-09-07T00:34:50;18.10;99.90
18450;DHT22;9354;50.194;7.690;2023-09-07T00:37:17;18.10;99.90
18450;DHT22;9354;50.194;7.690;2023-09-07T00:39:44;18.10;99.90
18450;DHT22;9354;50.194;7.690;2023-09-07T00:42:12;18.10;99.90
18450;DHT22;9354;50.194;7.690;2023-09-07T00:44:39;18.10;99.90
18450;DHT22;9354;50.194;7.690;2023-09-07T00:47:08;18.00;99.90
18450;DHT22;9354;50.194;7.690;2023-09-07T00:49:36;18.10;99.90
18450;DHT22;9354;50.194;7.690;2023-09-07T00:52:04;18.10;99.90
18450;DHT22;9354;50.194;7.690;2023-09-07T00:54:32;18.10;99.90
18450;DHT22;9354;50.194;7.690;2023-09-07T00:57:00;18.00;99.90
18450;DHT22;9354;50.194;7.690;2023-09-07T00:59:28;18.00;99.90
18450;DHT22;9354;50.194;7.690;2023-09-07T01:01:55;17.90;99.90
18450;DHT22;9354;50.194;7.690;2023-09-07T01:04:24;17.80;99.90
18450;DHT22;9354;50.194;7.690;2023-09-07T01:06:56;17.70;99.90
18450;DHT22;9354;50.194;7.690;2023-09-07T01:09:29;17.70;99.90
18450;DHT22;9354;50.194;7.690;2023-09-07T01:11:57;17.70;99.90
18450;DHT22;9354;50.194;7.690;2023-09-07T01:14:25;17.70;99.90
18450;DHT22;9354;50.194;7.690;2023-09-07T01:16:53;17.70;99.90
18450;DHT22;9354;50.194;7.690;2023-09-07T01:19:20;17.70;99.90
18450;DHT22;9354;50.194;7.690;2023-09-07T01:21:49;17.60;99.90
18450;DHT22;9354;50.194;7.690;2023-09-07T01:24:18;17.60;99.90
18450;DHT22;9354;50.194;7.690;2023-09-07T01:30:09;17.50;99.90
18450;DHT22;9354;50.194;7.690;2023-09-07T01:32:37;17.50;99.90
18450;DHT22;9354;50.194;7.690;2023-09-07T01:35:06;17.40;99.90
18450;DHT22;9354;50.194;7.690;2023-09-07T01:37:38;17.30;99.90
18450;DHT22;9354;50.194;7.690;2023-09-07T01:40:07;17.20;99.90
18450;DHT22;9354;50.194;7.690;2023-09-07T01:42:35;17.20;99.90
18450;DHT22;9354;50.194;7.690;2023-09-07T01:45:03;17.20;99.90
18450;DHT22;9354;50.194;7.690;2023-09-07T01:47:30;17.20;99.90
18450;DHT22;9354;50.194;7.690;2023-09-07T01:49:57;17.20;99.90
18450;DHT22;9354;50.194;7.690;2023-09-07T01:52:25;17.20;99.90
18450;DHT22;9354;50.194;7.690;2023-09-07T01:54:55;17.20;99.90
18450;DHT22;9354;50.194;7.690;2023-09-07T01:57:22;17.20;99.90
18450;DHT22;9354;50.194;7.690;2023-09-07T01:59:50;17.20;99.90
18450;DHT22;9354;50.194;7.690;2023-09-07T02:02:17;17.20;99.90
18450;DHT22;9354;50.194;7.690;2023-09-07T02:04:44;17.20;99.90
18450;DHT22;9354;50.194;7.690;2023-09-07T02:07:12;17.10;99.90
18450;DHT22;9354;50.194;7.690;2023-09-07T02:09:41;17.10;99.90
18450;DHT22;9354;50.194;7.690;2023-09-07T02:12:11;17.10;99.90
18450;DHT22;9354;50.194;7.690;2023-09-07T02:14:38;17.10;99.90
18450;DHT22;9354;50.194;7.690;2023-09-07T02:17:06;17.10;99.90
18450;DHT22;9354;50.194;7.690;2023-09-07T02:19:33;17.00;99.90
18450;DHT22;9354;50.194;7.690;2023-09-07T02:22:01;17.00;99.90
18450;DHT22;9354;50.194;7.690;2023-09-07T02:24:28;17.00;99.90
18450;DHT22;9354;50.194;7.690;2023-09-07T02:26:56;17.00;99.90
18450;DHT22;9354;50.194;7.690;2023-09-07T02:29:24;17.00;99.90
18450;DHT22;9354;50.194;7.690;2023-09-07T02:31:52;17.10;99.90
18450;DHT22;9354;50.194;7.690;2023-09-07T02:34:20;17.10;99.90
18450;DHT22;9354;50.194;7.690;2023-09-07T02:36:47;17.10;99.90
18450;DHT22;9354;50.194;7.690;2023-09-07T02:39:15;17.10;99.90
18450;DHT22;9354;50.194;7.690;2023-09-07T02:41:43;17.10;99.90
18450;DHT22;9354;50.194;7.690;2023-09-07T02:44:11;17.10;99.90
18450;DHT22;9354;50.194;7.690;2023-09-07T02:46:40;17.10;99.90
18450;DHT22;9354;50.194;7.690;2023-09-07T02:49:07;17.00;99.90
18450;DHT22;9354;50.194;7.690;2023-09-07T02:51:35;17.00;99.90
18450;DHT22;9354;50.194;7.690;2023-09-07T02:54:02;16.90;99.90
18450;DHT22;9354;50.194;7.690;2023-09-07T02:56:30;17.00;99.90
18450;DHT22;9354;50.194;7.690;2023-09-07T02:58:57;16.90;99.90
18450;DHT22;9354;50.194;7.690;2023-09-07T03:01:25;16.90;99.90
18450;DHT22;9354;50.194;7.690;2023-09-07T03:03:54;16.80;99.90
18450;DHT22;9354;50.194;7.690;2023-09-07T03:06:21;16.80;99.90
18450;DHT22;9354;50.194;7.690;2023-09-07T03:08:49;16.80;99.90
18450;DHT22;9354;50.194;7.690;2023-09-07T03:11:16;16.80;99.90
18450;DHT22;9354;50.194;7.690;2023-09-07T03:13:43;16.70;99.90
18450;DHT22;9354;50.194;7.690;2023-09-07T03:16:11;16.70;99.90
18450;DHT22;9354;50.194;7.690;2023-09-07T03:18:38;16.70;99.90
18450;DHT22;9354;50.194;7.690;2023-09-07T03:21:08;16.60;99.90
18450;DHT22;9354;50.194;7.690;2023-09-07T03:23:35;16.60;99.90
18450;DHT22;9354;50.194;7.690;2023-09-07T03:26:03;16.60;99.90
18450;DHT22;9354;50.194;7.690;2023-09-07T03:28:30;16.60;99.90
18450;DHT22;9354;50.194;7.690;2023-09-07T03:30:57;16.60;99.90
18450;DHT22;9354;50.194;7.690;2023-09-07T03:33:25;16.50;99.90
18450;DHT22;9354;50.194;7.690;2023-09-07T03:35:52;16.50;99.90
18450;DHT22;9354;50.194;7.690;2023-09-07T03:38:26;16.50;99.90
18450;DHT22;9354;50.194;7.690;2023-09-07T03:40:53;16.40;99.90
18450;DHT22;9354;50.194;7.690;2023-09-07T03:43:21;16.40;99.90
18450;DHT22;9354;50.194;7.690;2023-09-07T03:45:49;16.50;99.90
18450;DHT22;9354;50.194;7.690;2023-09-07T03:48:16;16.40;99.90
18450;DHT22;9354;50.194;7.690;2023-09-07T03:50:43;16.40;99.90
18450;DHT22;9354;50.194;7.690;2023-09-07T03:53:11;16.40;99.90
18450;DHT22;9354;50.194;7.690;2023-09-07T03:55:43;16.40;99.90
18450;DHT22;9354;50.194;7.690;2023-09-07T03:58:11;16.40;99.90
18450;DHT22;9354;50.194;7.690;2023-09-07T04:00:39;16.40;99.90
18450;DHT22;9354;50.194;7.690;2023-09-07T04:03:07;16.30;99.90
18450;DHT22;9354;50.194;7.690;2023-09-07T04:05:37;16.30;99.90
18450;DHT22;9354;50.194;7.690;2023-09-07T04:08:05;16.30;99.90
18450;DHT22;9354;50.194;7.690;2023-09-07T04:10:32;16.20;99.90
18450;DHT22;9354;50.194;7.690;2023-09-07T04:13:01;16.20;99.90
18450;DHT22;9354;50.194;7.690;2023-09-07T04:15:29;16.20;99.90
18450;DHT22;9354;50.194;7.690;2023-09-07T04:17:57;16.10;99.90
18450;DHT22;9354;50.194;7.690;2023-09-07T04:20:25;16.10;99.90
18450;DHT22;9354;50.194;7.690;2023-09-07T04:22:52;16.00;99.90
18450;DHT22;9354;50.194;7.690;2023-09-07T04:25:20;16.00;99.90
18450;DHT22;9354;50.194;7.690;2023-09-07T04:27:47;16.00;99.90
18450;DHT22;9354;50.194;7.690;2023-09-07T04:30:16;16.00;99.90
18450;DHT22;9354;50.194;7.690;2023-09-07T04:32:43;15.90;99.90
18450;DHT22;9354;50.194;7.690;2023-09-07T04:35:11;15.90;99.90
18450;DHT22;9354;50.194;7.690;2023-09-07T04:37:38;15.90;99.90
18450;DHT22;9354;50.194;7.690;2023-09-07T04:40:09;16.00;99.90
18450;DHT22;9354;50.194;7.690;2023-09-07T04:42:36;16.00;99.90
18450;DHT22;9354;50.194;7.690;2023-09-07T04:45:05;16.00;99.90
18450;DHT22;9354;50.194;7.690;2023-09-07T04:47:34;16.00;99.90
18450;DHT22;9354;50.194;7.690;2023-09-07T04:50:03;16.00;99.90
18450;DHT22;9354;50.194;7.690;2023-09-07T04:52:30;16.00;99.90
18450;DHT22;9354;50.194;7.690;2023-09-07T04:54:58;16.00;99.90
18450;DHT22;9354;50.194;7.690;2023-09-07T04:57:25;16.00;99.90
18450;DHT22;9354;50.194;7.690;2023-09-07T04:59:53;16.00;99.90
18450;DHT22;9354;50.194;7.690;2023-09-07T05:02:20;16.00;99.90
18450;DHT22;9354;50.194;7.690;2023-09-07T05:04:49;16.00;99.90
18450;DHT22;9354;50.194;7.690;2023-09-07T05:07:16;16.00;99.90
18450;DHT22;9354;50.194;7.690;2023-09-07T05:09:44;16.00;99.90
18450;DHT22;9354;50.194;7.690;2023-09-07T05:12:11;16.00;99.90
18450;DHT22;9354;50.194;7.690;2023-09-07T05:14:40;16.00;99.90
18450;DHT22;9354;50.194;7.690;2023-09-07T05:17:07;16.00;99.90
18450;DHT22;9354;50.194;7.690;2023-09-07T05:19:35;16.00;99.90
18450;DHT22;9354;50.194;7.690;2023-09-07T05:22:04;16.10;99.90
18450;DHT22;9354;50.194;7.690;2023-09-07T05:24:31;16.10;99.90
18450;DHT22;9354;50.194;7.690;2023-09-07T05:26:58;16.30;99.90
18450;DHT22;9354;50.194;7.690;2023-09-07T05:29:26;16.30;99.90
18450;DHT22;9354;50.194;7.690;2023-09-07T05:31:53;16.30;99.90
18450;DHT22;9354;50.194;7.690;2023-09-07T05:34:20;16.40;99.90
18450;DHT22;9354;50.194;7.690;2023-09-07T05:36:48;16.40;99.90
18450;DHT22;9354;50.194;7.690;2023-09-07T05:39:17;16.50;99.90
18450;DHT22;9354;50.194;7.690;2023-09-07T05:41:44;16.50;99.90
18450;DHT22;9354;50.194;7.690;2023-09-07T05:44:12;16.50;99.90
18450;DHT22;9354;50.194;7.690;2023-09-07T05:46:39;16.60;99.90
18450;DHT22;9354;50.194;7.690;2023-09-07T05:49:06;16.70;99.90
18450;DHT22;9354;50.194;7.690;2023-09-07T05:51:34;16.80;99.90
18450;DHT22;9354;50.194;7.690;2023-09-07T05:54:01;16.80;99.90
18450;DHT22;9354;50.194;7.690;2023-09-07T05:56:30;16.90;99.90
18450;DHT22;9354;50.194;7.690;2023-09-07T05:58:59;17.00;99.90
18450;DHT22;9354;50.194;7.690;2023-09-07T06:01:26;17.10;99.90
18450;DHT22;9354;50.194;7.690;2023-09-07T06:03:54;17.10;99.90
18450;DHT22;9354;50.194;7.690;2023-09-07T06:06:21;17.20;99.90
18450;DHT22;9354;50.194;7.690;2023-09-07T06:08:49;17.30;99.90
18450;DHT22;9354;50.194;7.690;2023-09-07T06:11:16;17.40;99.90
18450;DHT22;9354;50.194;7.690;2023-09-07T06:13:45;17.40;99.90
18450;DHT22;9354;50.194;7.690;2023-09-07T06:16:13;17.50;99.90
18450;DHT22;9354;50.194;7.690;2023-09-07T06:18:40;17.60;99.90
18450;DHT22;9354;50.194;7.690;2023-09-07T06:21:07;17.70;99.90
18450;DHT22;9354;50.194;7.690;2023-09-07T06:23:35;17.80;99.90
18450;DHT22;9354;50.194;7.690;2023-09-07T06:26:02;17.80;99.90
18450;DHT22;9354;50.194;7.690;2023-09-07T06:28:30;17.90;99.90
18450;DHT22;9354;50.194;7.690;2023-09-07T06:30:58;18.00;99.90
18450;DHT22;9354;50.194;7.690;2023-09-07T06:33:26;18.10;99.90
18450;DHT22;9354;50.194;7.690;2023-09-07T06:35:53;18.10;99.90
18450;DHT22;9354;50.194;7.690;2023-09-07T06:38:21;18.20;99.90
18450;DHT22;9354;50.194;7.690;2023-09-07T06:40:49;18.30;99.90
18450;DHT22;9354;50.194;7.690;2023-09-07T06:43:16;18.30;99.90
18450;DHT22;9354;50.194;7.690;2023-09-07T06:45:44;18.40;99.90
18450;DHT22;9354;50.194;7.690;2023-09-07T06:48:13;18.60;99.90
18450;DHT22;9354;50.194;7.690;2023-09-07T06:50:40;18.70;99.90
18450;DHT22;9354;50.194;7.690;2023-09-07T06:53:07;18.90;99.90
18450;DHT22;9354;50.194;7.690;2023-09-07T06:55:35;19.00;99.90
18450;DHT22;9354;50.194;7.690;2023-09-07T06:58:03;19.20;99.90
18450;DHT22;9354;50.194;7.690;2023-09-07T07:00:30;19.40;99.90
18450;DHT22;9354;50.194;7.690;2023-09-07T07:02:57;19.60;99.90
18450;DHT22;9354;50.194;7.690;2023-09-07T07:05:27;19.80;99.90
18450;DHT22;9354;50.194;7.690;2023-09-07T07:07:55;20.00;99.90
18450;DHT22;9354;50.194;7.690;2023-09-07T07:10:22;20.30;99.90
18450;DHT22;9354;50.194;7.690;2023-09-07T07:12:50;20.40;99.90
18450;DHT22;9354;50.194;7.690;2023-09-07T07:15:18;20.70;99.90
18450;DHT22;9354;50.194;7.690;2023-09-07T07:17:45;20.80;99.90
18450;DHT22;9354;50.194;7.690;2023-09-07T07:20:12;21.00;99.90
18450;DHT22;9354;50.194;7.690;2023-09-07T07:22:41;21.20;99.90
18450;DHT22;9354;50.194;7.690;2023-09-07T07:25:08;21.50;99.90
18450;DHT22;9354;50.194;7.690;2023-09-07T07:27:36;21.60;99.90
18450;DHT22;9354;50.194;7.690;2023-09-07T07:30:05;21.80;99.90
18450;DHT22;9354;50.194;7.690;2023-09-07T07:32:33;22.00;99.90
18450;DHT22;9354;50.194;7.690;2023-09-07T07:35:00;22.20;99.90
18450;DHT22;9354;50.194;7.690;2023-09-07T07:37:27;22.40;99.90
18450;DHT22;9354;50.194;7.690;2023-09-07T07:39:56;22.60;99.90
18450;DHT22;9354;50.194;7.690;2023-09-07T07:42:23;22.70;99.90
18450;DHT22;9354;50.194;7.690;2023-09-07T07:44:51;22.80;99.90
18450;DHT22;9354;50.194;7.690;2023-09-07T07:47:18;23.00;99.90
18450;DHT22;9354;50.194;7.690;2023-09-07T07:49:45;23.10;99.90
18450;DHT22;9354;50.194;7.690;2023-09-07T07:52:13;23.30;99.90
18450;DHT22;9354;50.194;7.690;2023-09-07T07:54:40;23.50;99.90
18450;DHT22;9354;50.194;7.690;2023-09-07T07:57:09;23.70;99.90
18450;DHT22;9354;50.194;7.690;2023-09-07T07:59:36;23.90;99.90
18450;DHT22;9354;50.194;7.690;2023-09-07T08:02:04;24.10;99.90
18450;DHT22;9354;50.194;7.690;2023-09-07T08:04:32;24.40;99.90
18450;DHT22;9354;50.194;7.690;2023-09-07T08:07:00;24.50;99.90
18450;DHT22;9354;50.194;7.690;2023-09-07T08:09:30;24.70;99.90
18450;DHT22;9354;50.194;7.690;2023-09-07T08:11:57;24.80;99.90
18450;DHT22;9354;50.194;7.690;2023-09-07T08:14:30;24.90;99.90
18450;DHT22;9354;50.194;7.690;2023-09-07T08:16:58;25.10;99.90
18450;DHT22;9354;50.194;7.690;2023-09-07T08:19:25;25.30;99.90
18450;DHT22;9354;50.194;7.690;2023-09-07T08:21:54;25.50;99.90
18450;DHT22;9354;50.194;7.690;2023-09-07T08:24:21;25.70;99.90
18450;DHT22;9354;50.194;7.690;2023-09-07T08:26:48;25.90;99.90
18450;DHT22;9354;50.194;7.690;2023-09-07T08:29:17;26.00;99.90
18450;DHT22;9354;50.194;7.690;2023-09-07T08:31:47;26.20;99.90
18450;DHT22;9354;50.194;7.690;2023-09-07T08:34:17;26.30;99.90
18450;DHT22;9354;50.194;7.690;2023-09-07T08:36:47;26.50;99.90
18450;DHT22;9354;50.194;7.690;2023-09-07T08:39:16;26.70;99.90
18450;DHT22;9354;50.194;7.690;2023-09-07T08:41:44;26.80;99.90
18450;DHT22;9354;50.194;7.690;2023-09-07T08:44:12;27.00;99.90
18450;DHT22;9354;50.194;7.690;2023-09-07T08:46:42;27.00;99.90
18450;DHT22;9354;50.194;7.690;2023-09-07T08:49:11;27.20;99.90
18450;DHT22;9354;50.194;7.690;2023-09-07T08:51:39;27.20;99.90
18450;DHT22;9354;50.194;7.690;2023-09-07T08:54:07;27.30;99.90
18450;DHT22;9354;50.194;7.690;2023-09-07T08:56:34;27.40;99.90
18450;DHT22;9354;50.194;7.690;2023-09-07T08:59:02;27.50;99.90
18450;DHT22;9354;50.194;7.690;2023-09-07T09:01:30;27.60;99.90
18450;DHT22;9354;50.194;7.690;2023-09-07T09:03:59;27.70;99.90
18450;DHT22;9354;50.194;7.690;2023-09-07T09:06:27;27.80;99.90
18450;DHT22;9354;50.194;7.690;2023-09-07T09:08:56;27.90;99.90
18450;DHT22;9354;50.194;7.690;2023-09-07T09:11:24;28.10;99.90
18450;DHT22;9354;50.194;7.690;2023-09-07T09:13:53;28.20;99.90
18450;DHT22;9354;50.194;7.690;2023-09-07T09:16:21;28.30;99.90
18450;DHT22;9354;50.194;7.690;2023-09-07T09:18:48;28.30;99.90
18450;DHT22;9354;50.194;7.690;2023-09-07T09:21:18;28.40;99.90
18450;DHT22;9354;50.194;7.690;2023-09-07T09:23:49;28.40;99.90
18450;DHT22;9354;50.194;7.690;2023-09-07T09:26:17;28.30;99.90
18450;DHT22;9354;50.194;7.690;2023-09-07T09:28:45;28.30;99.90
18450;DHT22;9354;50.194;7.690;2023-09-07T09:31:13;28.40;99.90
18450;DHT22;9354;50.194;7.690;2023-09-07T09:33:41;28.50;99.90
18450;DHT22;9354;50.194;7.690;2023-09-07T09:36:09;28.60;99.90
18450;DHT22;9354;50.194;7.690;2023-09-07T09:38:36;28.60;99.90
18450;DHT22;9354;50.194;7.690;2023-09-07T09:41:05;28.70;99.90
18450;DHT22;9354;50.194;7.690;2023-09-07T09:43:33;28.70;99.90
18450;DHT22;9354;50.194;7.690;2023-09-07T09:46:01;28.70;99.90
18450;DHT22;9354;50.194;7.690;2023-09-07T09:48:31;28.70;99.90
18450;DHT22;9354;50.194;7.690;2023-09-07T09:50:59;28.70;99.90
18450;DHT22;9354;50.194;7.690;2023-09-07T09:53:27;28.80;99.90
18450;DHT22;9354;50.194;7.690;2023-09-07T09:55:54;28.80;99.90
18450;DHT22;9354;50.194;7.690;2023-09-07T09:58:23;28.70;99.90
18450;DHT22;9354;50.194;7.690;2023-09-07T10:00:54;28.50;99.90
18450;DHT22;9354;50.194;7.690;2023-09-07T10:03:25;28.30;99.90
18450;DHT22;9354;50.194;7.690;2023-09-07T10:05:56;28.30;99.90
18450;DHT22;9354;50.194;7.690;2023-09-07T10:08:34;28.30;99.90
18450;DHT22;9354;50.194;7.690;2023-09-07T10:11:07;28.30;99.90
18450;DHT22;9354;50.194;7.690;2023-09-07T10:13:37;28.20;99.90
18450;DHT22;9354;50.194;7.690;2023-09-07T10:16:05;28.10;99.90
18450;DHT22;9354;50.194;7.690;2023-09-07T10:18:35;28.00;99.90
18450;DHT22;9354;50.194;7.690;2023-09-07T10:21:03;28.00;99.90
18450;DHT22;9354;50.194;7.690;2023-09-07T10:23:38;28.00;99.90
18450;DHT22;9354;50.194;7.690;2023-09-07T10:26:10;28.00;99.90
18450;DHT22;9354;50.194;7.690;2023-09-07T10:28:40;28.00;99.90
18450;DHT22;9354;50.194;7.690;2023-09-07T10:31:13;27.90;99.90
18450;DHT22;9354;50.194;7.690;2023-09-07T10:33:41;27.90;99.90
18450;DHT22;9354;50.194;7.690;2023-09-07T10:36:20;27.90;99.90
18450;DHT22;9354;50.194;7.690;2023-09-07T10:38:48;28.00;99.90
18450;DHT22;9354;50.194;7.690;2023-09-07T10:41:15;28.00;99.90
18450;DHT22;9354;50.194;7.690;2023-09-07T10:43:49;28.00;99.90
18450;DHT22;9354;50.194;7.690;2023-09-07T10:46:18;28.10;99.90
18450;DHT22;9354;50.194;7.690;2023-09-07T10:48:50;28.20;99.90
18450;DHT22;9354;50.194;7.690;2023-09-07T10:51:18;28.30;99.90
18450;DHT22;9354;50.194;7.690;2023-09-07T10:53:45;28.50;99.90
18450;DHT22;9354;50.194;7.690;2023-09-07T10:56:13;28.60;99.90
18450;DHT22;9354;50.194;7.690;2023-09-07T10:58:40;28.70;99.90
18450;DHT22;9354;50.194;7.690;2023-09-07T11:01:10;28.80;99.90
18450;DHT22;9354;50.194;7.690;2023-09-07T11:03:38;28.90;99.30
18450;DHT22;9354;50.194;7.690;2023-09-07T11:06:09;29.00;98.80
18450;DHT22;9354;50.194;7.690;2023-09-07T11:08:37;29.10;98.70
18450;DHT22;9354;50.194;7.690;2023-09-07T11:11:05;29.20;99.10
18450;DHT22;9354;50.194;7.690;2023-09-07T11:13:33;29.30;99.20
18450;DHT22;9354;50.194;7.690;2023-09-07T11:16:00;29.40;98.20
18450;DHT22;9354;50.194;7.690;2023-09-07T11:18:29;29.50;98.30
18450;DHT22;9354;50.194;7.690;2023-09-07T11:20:57;29.60;97.80
18450;DHT22;9354;50.194;7.690;2023-09-07T11:23:25;29.60;96.60
18450;DHT22;9354;50.194;7.690;2023-09-07T11:25:53;29.60;96.00
18450;DHT22;9354;50.194;7.690;2023-09-07T11:28:20;29.60;95.80
18450;DHT22;9354;50.194;7.690;2023-09-07T11:30:51;29.50;95.50
18450;DHT22;9354;50.194;7.690;2023-09-07T11:33:20;29.50;95.20
18450;DHT22;9354;50.194;7.690;2023-09-07T11:35:49;29.50;95.30
18450;DHT22;9354;50.194;7.690;2023-09-07T11:38:17;29.60;95.40
18450;DHT22;9354;50.194;7.690;2023-09-07T11:40:45;29.70;95.60
18450;DHT22;9354;50.194;7.690;2023-09-07T11:43:13;29.90;95.20
18450;DHT22;9354;50.194;7.690;2023-09-07T11:45:42;30.10;94.80
18450;DHT22;9354;50.194;7.690;2023-09-07T11:48:10;30.40;94.10
18450;DHT22;9354;50.194;7.690;2023-09-07T11:50:39;30.20;93.40
18450;DHT22;9354;50.194;7.690;2023-09-07T11:53:08;30.20;93.20
18450;DHT22;9354;50.194;7.690;2023-09-07T11:55:36;30.10;92.30
18450;DHT22;9354;50.194;7.690;2023-09-07T11:58:04;30.10;92.00
18450;DHT22;9354;50.194;7.690;2023-09-07T12:00:31;30.00;91.30
18450;DHT22;9354;50.194;7.690;2023-09-07T12:02:59;30.00;91.30
18450;DHT22;9354;50.194;7.690;2023-09-07T12:05:27;30.00;91.50
18450;DHT22;9354;50.194;7.690;2023-09-07T12:07:54;30.00;91.80
18450;DHT22;9354;50.194;7.690;2023-09-07T12:10:23;30.10;92.00
18450;DHT22;9354;50.194;7.690;2023-09-07T12:12:51;30.10;90.90
18450;DHT22;9354;50.194;7.690;2023-09-07T12:15:18;30.00;91.20
18450;DHT22;9354;50.194;7.690;2023-09-07T12:17:45;30.00;91.10
18450;DHT22;9354;50.194;7.690;2023-09-07T12:20:13;30.10;91.20
18450;DHT22;9354;50.194;7.690;2023-09-07T12:22:41;30.30;90.50
18450;DHT22;9354;50.194;7.690;2023-09-07T12:25:08;30.50;90.00
18450;DHT22;9354;50.194;7.690;2023-09-07T12:27:38;30.50;88.90
18450;DHT22;9354;50.194;7.690;2023-09-07T12:30:06;30.40;88.40
18450;DHT22;9354;50.194;7.690;2023-09-07T12:32:38;30.40;87.90
18450;DHT22;9354;50.194;7.690;2023-09-07T12:35:06;30.30;88.20
18450;DHT22;9354;50.194;7.690;2023-09-07T12:37:35;30.30;88.10
18450;DHT22;9354;50.194;7.690;2023-09-07T12:40:02;30.30;87.60
18450;DHT22;9354;50.194;7.690;2023-09-07T12:42:40;30.30;87.60
18450;DHT22;9354;50.194;7.690;2023-09-07T12:45:08;30.30;86.00
18450;DHT22;9354;50.194;7.690;2023-09-07T12:47:36;30.30;87.50
18450;DHT22;9354;50.194;7.690;2023-09-07T12:50:04;30.50;88.10
18450;DHT22;9354;50.194;7.690;2023-09-07T12:52:33;30.70;86.90
18450;DHT22;9354;50.194;7.690;2023-09-07T12:55:03;30.70;86.50
18450;DHT22;9354;50.194;7.690;2023-09-07T12:57:30;30.70;85.10
18450;DHT22;9354;50.194;7.690;2023-09-07T12:59:59;30.70;84.80
18450;DHT22;9354;50.194;7.690;2023-09-07T13:02:27;30.70;84.90
18450;DHT22;9354;50.194;7.690;2023-09-07T13:04:54;30.70;86.30
18450;DHT22;9354;50.194;7.690;2023-09-07T13:07:22;30.70;86.20
18450;DHT22;9354;50.194;7.690;2023-09-07T13:09:50;30.70;85.90
18450;DHT22;9354;50.194;7.690;2023-09-07T13:12:17;30.80;87.40
18450;DHT22;9354;50.194;7.690;2023-09-07T13:14:45;31.00;87.10
18450;DHT22;9354;50.194;7.690;2023-09-07T13:17:14;31.10;87.50
18450;DHT22;9354;50.194;7.690;2023-09-07T13:19:42;31.30;86.80
18450;DHT22;9354;50.194;7.690;2023-09-07T13:22:09;31.30;84.20
18450;DHT22;9354;50.194;7.690;2023-09-07T13:24:37;31.30;80.20
18450;DHT22;9354;50.194;7.690;2023-09-07T13:27:04;31.20;80.00
18450;DHT22;9354;50.194;7.690;2023-09-07T13:29:32;31.10;80.30
18450;DHT22;9354;50.194;7.690;2023-09-07T13:31:59;31.00;79.00
18450;DHT22;9354;50.194;7.690;2023-09-07T13:34:28;31.00;78.10
18450;DHT22;9354;50.194;7.690;2023-09-07T13:36:56;31.00;79.10
18450;DHT22;9354;50.194;7.690;2023-09-07T13:39:23;31.00;78.40
18450;DHT22;9354;50.194;7.690;2023-09-07T13:41:51;31.10;78.50
18450;DHT22;9354;50.194;7.690;2023-09-07T13:44:18;31.20;79.50
18450;DHT22;9354;50.194;7.690;2023-09-07T13:46:46;31.20;80.30
18450;DHT22;9354;50.194;7.690;2023-09-07T13:49:14;31.30;80.80
18450;DHT22;9354;50.194;7.690;2023-09-07T13:51:42;31.40;82.00
18450;DHT22;9354;50.194;7.690;2023-09-07T13:54:10;31.50;80.60
18450;DHT22;9354;50.194;7.690;2023-09-07T13:56:38;31.40;80.00
18450;DHT22;9354;50.194;7.690;2023-09-07T13:59:08;31.50;81.40
18450;DHT22;9354;50.194;7.690;2023-09-07T14:01:35;31.60;82.10
18450;DHT22;9354;50.194;7.690;2023-09-07T14:04:04;31.60;80.40
18450;DHT22;9354;50.194;7.690;2023-09-07T14:06:31;31.60;79.80
18450;DHT22;9354;50.194;7.690;2023-09-07T14:09:00;31.40;79.00
18450;DHT22;9354;50.194;7.690;2023-09-07T14:11:27;31.30;78.20
18450;DHT22;9354;50.194;7.690;2023-09-07T14:13:55;31.10;79.70
18450;DHT22;9354;50.194;7.690;2023-09-07T14:16:22;31.00;80.80
18450;DHT22;9354;50.194;7.690;2023-09-07T14:18:50;31.00;81.40
18450;DHT22;9354;50.194;7.690;2023-09-07T14:21:17;31.00;81.20
18450;DHT22;9354;50.194;7.690;2023-09-07T14:23:45;31.10;79.20
18450;DHT22;9354;50.194;7.690;2023-09-07T14:26:14;31.00;77.50
18450;DHT22;9354;50.194;7.690;2023-09-07T14:28:42;31.00;77.80
18450;DHT22;9354;50.194;7.690;2023-09-07T14:31:09;30.80;77.30
18450;DHT22;9354;50.194;7.690;2023-09-07T14:33:36;30.70;78.00
18450;DHT22;9354;50.194;7.690;2023-09-07T14:36:05;30.60;79.00
18450;DHT22;9354;50.194;7.690;2023-09-07T14:38:33;30.60;79.90
18450;DHT22;9354;50.194;7.690;2023-09-07T14:41:06;30.60;79.80
18450;DHT22;9354;50.194;7.690;2023-09-07T14:43:35;30.50;79.60
18450;DHT22;9354;50.194;7.690;2023-09-07T14:46:02;30.40;79.30
18450;DHT22;9354;50.194;7.690;2023-09-07T14:48:30;30.40;80.70
18450;DHT22;9354;50.194;7.690;2023-09-07T14:50:57;30.30;81.30
18450;DHT22;9354;50.194;7.690;2023-09-07T14:53:25;30.30;82.30
18450;DHT22;9354;50.194;7.690;2023-09-07T14:55:52;30.20;82.20
18450;DHT22;9354;50.194;7.690;2023-09-07T14:58:20;30.20;82.40
18450;DHT22;9354;50.194;7.690;2023-09-07T15:00:48;30.20;82.80
18450;DHT22;9354;50.194;7.690;2023-09-07T15:03:16;30.10;82.30
18450;DHT22;9354;50.194;7.690;2023-09-07T15:05:43;30.00;83.10
18450;DHT22;9354;50.194;7.690;2023-09-07T15:08:10;30.00;83.50
18450;DHT22;9354;50.194;7.690;2023-09-07T15:10:38;30.00;83.00
18450;DHT22;9354;50.194;7.690;2023-09-07T15:13:06;29.90;84.40
18450;DHT22;9354;50.194;7.690;2023-09-07T15:15:34;30.00;84.50
18450;DHT22;9354;50.194;7.690;2023-09-07T15:18:07;30.00;84.10
18450;DHT22;9354;50.194;7.690;2023-09-07T15:20:34;30.00;85.00
18450;DHT22;9354;50.194;7.690;2023-09-07T15:23:02;30.00;85.30
18450;DHT22;9354;50.194;7.690;2023-09-07T15:25:30;30.00;85.20
18450;DHT22;9354;50.194;7.690;2023-09-07T15:27:57;30.00;85.20
18450;DHT22;9354;50.194;7.690;2023-09-07T15:30:25;29.90;85.10
18450;DHT22;9354;50.194;7.690;2023-09-07T15:32:52;29.80;85.80
18450;DHT22;9354;50.194;7.690;2023-09-07T15:35:21;29.70;86.90
18450;DHT22;9354;50.194;7.690;2023-09-07T15:37:48;29.60;87.80
18450;DHT22;9354;50.194;7.690;2023-09-07T15:40:16;29.50;87.80
18450;DHT22;9354;50.194;7.690;2023-09-07T15:42:43;29.40;87.00
18450;DHT22;9354;50.194;7.690;2023-09-07T15:45:11;29.30;87.50
18450;DHT22;9354;50.194;7.690;2023-09-07T15:47:38;29.30;87.80
18450;DHT22;9354;50.194;7.690;2023-09-07T15:50:06;29.30;88.20
18450;DHT22;9354;50.194;7.690;2023-09-07T15:52:43;29.20;88.40